Time;durP1;ratioP1;P1;durP2;ratioP2;P2;SDS_P1;SDS_P2;PMS_P1;PMS_P2;Temp;Humidity;BMP_temperature;BMP_pressure;BME280_temperature;BME280_humidity;BME280_pressure;Samples;Min_cycle;Max_cycle;Signal;HPM_P1;HPM_P2
2024/03/06 00:01:48;;;;;;;;;;;;;;;13.61;72.57;100347.56;5083649;28;19916;-82
2024/03/06 00:04:39;;;;;;;;;;;;;;;13.60;72.78;100359.63;5095528;28;19942;-83
2024/03/06 00:07:31;;;;;;;;;;;;;;;13.62;72.63;100360.84;5068982;28;19916;-80
2024/03/06 00:10:21;;;;;;;;;;;;;;;13.63;72.43;100362.47;5066049;28;20384;-82
2024/03/06 00:13:10;;;;;;;;;;;;;;;13.66;71.87;100366.44;5065786;28;20254;-81
2024/03/06 00:16:02;;;;;;;;;;;;;;;13.69;70.92;100355.63;5081840;28;20301;-81
2024/03/06 00:18:54;;;;;;;;;;;;;;;13.68;70.16;100359.50;5065496;28;19916;-81
2024/03/06 00:21:46;;;;;;;;;;;;;;;13.68;70.13;100354.03;5076843;28;19916;-81
2024/03/06 00:24:38;;;;;;;;;;;;;;;13.73;69.14;100354.91;5077427;28;20456;-81
2024/03/06 00:27:27;;;;;;;;;;;;;;;13.66;69.21;100350.81;5066681;28;19916;-84
2024/03/06 00:30:19;;;;;;;;;;;;;;;13.72;68.73;100354.13;5077070;28;19925;-82
2024/03/06 00:33:11;;;;;;;;;;;;;;;13.70;68.58;100359.97;5091679;28;19916;-82
2024/03/06 00:36:03;;;;;;;;;;;;;;;13.54;69.10;100350.06;5077982;28;19924;-81
2024/03/06 00:38:55;;;;;;;;;;;;;;;13.33;69.76;100358.38;5068169;28;19916;-82
2024/03/06 00:41:50;;;;;;;;;;;;;;;13.23;70.25;100364.31;5076668;28;19916;-81
2024/03/06 00:44:42;;;;;;;;;;;;;;;13.25;70.31;100372.97;5062948;28;19916;-81
2024/03/06 00:47:34;;;;;;;;;;;;;;;13.19;70.19;100369.66;5095551;28;20559;-81
2024/03/06 00:50:26;;;;;;;;;;;;;;;13.25;70.09;100362.03;5077977;28;19928;-81
2024/03/06 00:53:21;;;;;;;;;;;;;;;13.30;69.79;100358.28;5076904;28;20392;-81
2024/03/06 00:56:12;;;;;;;;;;;;;;;13.28;69.29;100361.34;5079450;28;19920;-81
2024/03/06 00:59:04;;;;;;;;;;;;;;;13.20;69.43;100352.16;5063277;28;19920;-81
2024/03/06 01:01:59;;;;;;;;;;;;;;;13.12;69.55;100368.63;5076427;28;19916;-81
2024/03/06 01:04:51;;;;;;;;;;;;;;;13.17;69.79;100361.00;5093532;28;19916;-83
2024/03/06 01:07:43;;;;;;;;;;;;;;;13.15;69.51;100354.31;5092487;28;19916;-82
2024/03/06 01:10:35;;;;;;;;;;;;;;;13.11;69.55;100356.06;5080676;28;19916;-80
2024/03/06 01:13:27;;;;;;;;;;;;;;;13.11;68.88;100364.25;5081691;28;20373;-81
2024/03/06 01:16:19;;;;;;;;;;;;;;;13.11;69.10;100356.91;5094418;28;20381;-80
2024/03/06 01:19:11;;;;;;;;;;;;;;;13.09;68.67;100352.91;5080098;28;20304;-81
2024/03/06 01:22:01;;;;;;;;;;;;;;;12.94;69.34;100356.31;5079977;28;19916;-81
2024/03/06 01:24:53;;;;;;;;;;;;;;;12.83;69.90;100361.41;5084341;28;19916;-81
2024/03/06 01:27:45;;;;;;;;;;;;;;;12.80;69.96;100357.41;5082700;28;20316;-81
2024/03/06 01:30:37;;;;;;;;;;;;;;;12.71;70.16;100353.97;5080257;28;19916;-82
2024/03/06 01:33:26;;;;;;;;;;;;;;;12.62;70.54;100349.75;5067357;28;19920;-81
2024/03/06 01:36:18;;;;;;;;;;;;;;;12.58;70.78;100346.91;5079988;28;20308;-81
2024/03/06 01:39:10;;;;;;;;;;;;;;;12.59;70.60;100351.25;5084896;28;19919;-81
2024/03/06 01:42:02;;;;;;;;;;;;;;;12.67;70.31;100347.63;5093844;28;19916;-81
2024/03/06 01:44:54;;;;;;;;;;;;;;;12.73;69.79;100346.28;5066635;28;19916;-81
2024/03/06 01:47:45;;;;;;;;;;;;;;;12.74;69.61;100347.88;5084065;28;19932;-82
2024/03/06 01:50:37;;;;;;;;;;;;;;;12.73;69.04;100346.28;5081587;28;20374;-81
2024/03/06 01:53:31;;;;;;;;;;;;;;;12.81;68.82;100353.56;5079575;28;19920;-81
2024/03/06 01:56:23;;;;;;;;;;;;;;;12.83;68.25;100358.69;5069060;28;19920;-80
2024/03/06 01:59:15;;;;;;;;;;;;;;;12.88;67.72;100357.66;5080549;28;19916;-80
2024/03/06 02:02:07;;;;;;;;;;;;;;;12.84;67.19;100358.34;5071389;28;19924;-82
2024/03/06 02:04:59;;;;;;;;;;;;;;;12.83;67.55;100355.94;5079374;28;20305;-81
2024/03/06 02:07:52;;;;;;;;;;;;;;;12.78;67.85;100347.97;5080149;28;19920;-80
2024/03/06 02:10:43;;;;;;;;;;;;;;;12.79;67.80;100350.38;5094503;28;19916;-81
2024/03/06 02:13:35;;;;;;;;;;;;;;;12.84;67.89;100341.19;5079286;28;19916;-80
2024/03/06 02:16:27;;;;;;;;;;;;;;;12.80;68.18;100346.50;5079245;28;20388;-80
2024/03/06 02:19:17;;;;;;;;;;;;;;;12.78;68.06;100334.34;5084623;28;19920;-81
2024/03/06 02:22:09;;;;;;;;;;;;;;;12.79;68.32;100338.66;5080679;28;19919;-82
2024/03/06 02:25:00;;;;;;;;;;;;;;;12.82;68.26;100338.78;5078375;28;20300;-81
2024/03/06 02:27:52;;;;;;;;;;;;;;;12.82;68.37;100348.91;5075153;28;19935;-81
2024/03/06 02:30:44;;;;;;;;;;;;;;;12.79;68.46;100350.38;5062622;28;19916;-81
2024/03/06 02:33:36;;;;;;;;;;;;;;;12.80;68.46;100353.88;5058705;28;19917;-80
2024/03/06 02:36:28;;;;;;;;;;;;;;;12.79;68.23;100349.59;5061159;28;19924;-81
2024/03/06 02:39:20;;;;;;;;;;;;;;;12.76;68.70;100344.78;5058304;28;19917;-81
2024/03/06 02:42:12;;;;;;;;;;;;;;;12.81;68.62;100350.03;5049675;28;19920;-81
2024/03/06 02:45:04;;;;;;;;;;;;;;;12.83;68.18;100345.84;5060221;28;20370;-81
2024/03/06 02:47:56;;;;;;;;;;;;;;;12.85;68.14;100342.75;5073170;28;19917;-80
2024/03/06 02:50:48;;;;;;;;;;;;;;;12.81;68.10;100350.03;5058288;28;19916;-80
2024/03/06 02:53:40;;;;;;;;;;;;;;;12.83;68.19;100355.94;5058378;28;19920;-80
2024/03/06 02:56:32;;;;;;;;;;;;;;;12.75;68.29;100348.63;5048747;28;19920;-81
2024/03/06 02:59:24;;;;;;;;;;;;;;;12.55;68.80;100352.22;5072731;28;19925;-80
2024/03/06 03:02:16;;;;;;;;;;;;;;;12.58;68.74;100351.56;5073001;28;20297;-81
2024/03/06 03:05:08;;;;;;;;;;;;;;;12.63;68.79;100352.16;5047754;28;19920;-80
2024/03/06 03:07:59;;;;;;;;;;;;;;;12.66;68.59;100348.75;5073801;28;20579;-81
2024/03/06 03:10:51;;;;;;;;;;;;;;;12.64;68.40;100350.22;5049393;28;19916;-81
2024/03/06 03:13:43;;;;;;;;;;;;;;;12.57;68.63;100355.44;5058682;28;20301;-82
2024/03/06 03:16:35;;;;;;;;;;;;;;;12.53;68.72;100358.03;5071933;28;19920;-81
2024/03/06 03:19:27;;;;;;;;;;;;;;;12.55;68.34;100361.22;5048178;28;19916;-80
2024/03/06 03:22:19;;;;;;;;;;;;;;;12.57;68.35;100361.69;5045968;28;19920;-81
2024/03/06 03:25:14;;;;;;;;;;;;;;;12.53;68.44;100368.97;5072319;28;19917;-81
2024/03/06 03:28:07;;;;;;;;;;;;;;;12.52;68.63;100369.28;5072328;28;19917;-81
2024/03/06 03:30:59;;;;;;;;;;;;;;;12.44;68.64;100362.78;5070938;28;20305;-82
2024/03/06 03:33:51;;;;;;;;;;;;;;;12.42;69.20;100367.78;5058031;28;19917;-81
2024/03/06 03:36:44;;;;;;;;;;;;;;;12.45;68.92;100358.91;5060323;28;19921;-81
2024/03/06 03:39:36;;;;;;;;;;;;;;;12.47;68.62;100348.47;5057806;28;20389;-82
2024/03/06 03:42:28;;;;;;;;;;;;;;;12.43;69.10;100348.38;5047920;28;19917;-81
2024/03/06 03:45:20;;;;;;;;;;;;;;;12.44;68.45;100341.75;5057478;28;19920;-80
2024/03/06 03:48:12;;;;;;;;;;;;;;;12.43;68.21;100337.47;5063501;28;20307;-81
2024/03/06 03:51:04;;;;;;;;;;;;;;;12.41;68.08;100342.44;5046836;28;19920;-80
2024/03/06 03:53:57;;;;;;;;;;;;;;;12.30;68.28;100335.00;5071011;28;20487;-81
2024/03/06 03:56:49;;;;;;;;;;;;;;;12.30;67.76;100338.53;5071051;28;19924;-81
2024/03/06 03:59:41;;;;;;;;;;;;;;;12.28;68.26;100345.47;5046012;28;20333;-79
2024/03/06 04:02:33;;;;;;;;;;;;;;;12.29;68.04;100347.06;5057517;28;19916;-80
2024/03/06 04:05:25;;;;;;;;;;;;;;;12.33;67.63;100348.78;5071807;28;19924;-80
2024/03/06 04:08:17;;;;;;;;;;;;;;;12.34;67.73;100357.75;5058487;28;19916;-80
2024/03/06 04:11:06;;;;;;;;;;;;;;;12.35;67.49;100357.41;5048553;28;19916;-81
2024/03/06 04:13:58;;;;;;;;;;;;;;;12.31;67.61;100359.22;5071025;28;19916;-81
2024/03/06 04:16:48;;;;;;;;;;;;;;;12.26;68.09;100359.44;5058090;28;19920;-80
2024/03/06 04:19:40;;;;;;;;;;;;;;;12.27;67.43;100365.69;5061649;28;19921;-81
2024/03/06 04:22:32;;;;;;;;;;;;;;;12.26;67.62;100362.16;5079610;28;19916;-80
2024/03/06 04:25:24;;;;;;;;;;;;;;;12.28;67.88;100372.72;5078920;28;20563;-81
2024/03/06 04:28:16;;;;;;;;;;;;;;;12.23;68.01;100381.13;5066743;28;19920;-80
2024/03/06 04:31:08;;;;;;;;;;;;;;;12.25;68.37;100381.56;5078480;28;19916;-81
2024/03/06 04:34:00;;;;;;;;;;;;;;;12.25;68.54;100382.34;5090397;28;19920;-82
2024/03/06 04:36:52;;;;;;;;;;;;;;;12.14;68.76;100394.03;5094062;28;19924;-80
2024/03/06 04:39:45;;;;;;;;;;;;;;;11.94;69.86;100390.94;5090134;28;20389;-80
2024/03/06 04:42:37;;;;;;;;;;;;;;;11.94;69.87;100385.50;5080176;28;19916;-80
2024/03/06 04:45:29;;;;;;;;;;;;;;;11.95;69.82;100392.53;5065300;28;20300;-80
2024/03/06 04:48:21;;;;;;;;;;;;;;;11.93;70.52;100400.28;5076608;28;19920;-80
2024/03/06 04:51:13;;;;;;;;;;;;;;;11.97;70.46;100406.66;5079373;28;19923;-81
2024/03/06 04:54:04;;;;;;;;;;;;;;;11.88;71.17;100414.09;5076144;28;20301;-80
2024/03/06 04:56:56;;;;;;;;;;;;;;;11.87;71.08;100409.78;5076357;28;19921;-80
2024/03/06 04:59:48;;;;;;;;;;;;;;;11.89;71.81;100410.22;5079598;28;19920;-80
2024/03/06 05:02:40;;;;;;;;;;;;;;;11.78;71.95;100411.75;5065990;28;19920;-82
2024/03/06 05:05:32;;;;;;;;;;;;;;;11.68;72.30;100420.28;5078613;28;20365;-80
2024/03/06 05:08:24;;;;;;;;;;;;;;;11.73;72.39;100422.03;5083984;28;19916;-81
2024/03/06 05:11:19;;;;;;;;;;;;;;;11.71;72.45;100430.50;5111396;28;19915;-80
2024/03/06 05:14:11;;;;;;;;;;;;;;;11.66;72.92;100436.16;5093037;28;19920;-79
2024/03/06 05:17:03;;;;;;;;;;;;;;;11.73;72.71;100439.19;5083595;28;19924;-81
2024/03/06 05:19:55;;;;;;;;;;;;;;;11.64;72.87;100449.28;5094618;28;19916;-80
2024/03/06 05:22:47;;;;;;;;;;;;;;;11.68;72.67;100444.00;5085221;28;19920;-81
2024/03/06 05:25:39;;;;;;;;;;;;;;;11.67;72.42;100443.19;5083566;28;19920;-81
2024/03/06 05:28:31;;;;;;;;;;;;;;;11.71;72.26;100446.84;5087107;28;19920;-80
2024/03/06 05:31:22;;;;;;;;;;;;;;;11.68;73.05;100444.78;5078178;28;19920;-80
2024/03/06 05:34:14;;;;;;;;;;;;;;;11.81;72.23;100451.94;5087734;28;19920;-80
2024/03/06 05:37:06;;;;;;;;;;;;;;;11.87;71.85;100455.28;5066382;28;20448;-81
2024/03/06 05:39:58;;;;;;;;;;;;;;;11.78;72.13;100447.19;5068788;28;19916;-80
2024/03/06 05:42:50;;;;;;;;;;;;;;;11.86;72.16;100451.75;5089910;28;19920;-80
2024/03/06 05:45:42;;;;;;;;;;;;;;;11.91;71.98;100456.22;5078924;28;19920;-80
2024/03/06 05:48:34;;;;;;;;;;;;;;;11.84;71.76;100461.38;5076695;28;19916;-81
2024/03/06 05:51:26;;;;;;;;;;;;;;;11.89;72.02;100458.47;5078782;28;19916;-81
2024/03/06 05:54:18;;;;;;;;;;;;;;;11.94;71.51;100464.53;5078991;28;20397;-79
2024/03/06 05:57:09;;;;;;;;;;;;;;;11.86;71.49;100470.03;5066402;28;19924;-80
2024/03/06 06:00:02;;;;;;;;;;;;;;;11.94;71.71;100477.34;5083514;28;19916;-80
2024/03/06 06:03:00;;;;;;;;;;;;;;;11.93;71.69;100481.22;5096205;28;19919;-82
2024/03/06 06:05:52;;;;;;;;;;;;;;;11.98;71.62;100486.47;5079266;28;19920;-79
2024/03/06 06:08:44;;;;;;;;;;;;;;;11.98;71.31;100483.75;5068099;28;19916;-78
2024/03/06 06:11:34;;;;;;;;;;;;;;;11.98;71.29;100483.75;5080740;28;20206;-79
2024/03/06 06:14:31;;;;;;;;;;;;;;;12.05;70.99;100494.09;5078432;28;19916;-78
2024/03/06 06:17:23;;;;;;;;;;;;;;;12.00;71.34;100495.91;5094432;28;19924;-79
2024/03/06 06:20:18;;;;;;;;;;;;;;;11.93;71.57;100501.09;5112791;28;19919;-80
2024/03/06 06:23:10;;;;;;;;;;;;;;;11.90;71.61;100511.84;5099104;28;19924;-82
2024/03/06 06:26:02;;;;;;;;;;;;;;;11.94;71.67;100501.88;5100090;28;19916;-78
2024/03/06 06:28:54;;;;;;;;;;;;;;;11.88;71.59;100504.00;5089421;28;19916;-80
2024/03/06 06:31:46;;;;;;;;;;;;;;;11.91;71.58;100497.88;5087295;28;19919;-80
2024/03/06 06:34:36;;;;;;;;;;;;;;;11.94;71.28;100510.84;5099539;28;20400;-79
2024/03/06 06:37:28;;;;;;;;;;;;;;;12.00;71.40;100514.19;5098958;28;19942;-81
2024/03/06 06:40:20;;;;;;;;;;;;;;;12.03;71.25;100507.28;5086589;28;20300;-79
2024/03/06 06:43:12;;;;;;;;;;;;;;;12.02;71.13;100505.69;5098527;28;19920;-80
2024/03/06 06:46:04;;;;;;;;;;;;;;;12.05;71.48;100510.47;5087016;28;20393;-79
2024/03/06 06:48:54;;;;;;;;;;;;;;;12.07;71.13;100509.03;5087705;28;19920;-80
2024/03/06 06:51:46;;;;;;;;;;;;;;;12.07;71.15;100519.91;5058092;28;19916;-80
2024/03/06 06:54:38;;;;;;;;;;;;;;;12.04;71.24;100517.06;5074467;28;20385;-80
2024/03/06 06:57:30;;;;;;;;;;;;;;;12.04;71.05;100514.34;5079107;28;19916;-80
2024/03/06 07:00:22;;;;;;;;;;;;;;;12.06;70.94;100507.41;5058260;28;19924;-80
2024/03/06 07:03:14;;;;;;;;;;;;;;;12.08;70.90;100505.16;5066319;28;19920;-80
2024/03/06 07:06:06;;;;;;;;;;;;;;;12.11;70.95;100507.22;5054013;28;19979;-81
2024/03/06 07:08:58;;;;;;;;;;;;;;;12.16;70.78;100503.50;5075396;28;19917;-79
2024/03/06 07:11:50;;;;;;;;;;;;;;;12.21;70.86;100503.31;5078848;28;19920;-79
2024/03/06 07:14:43;;;;;;;;;;;;;;;12.17;70.96;100505.09;5078981;28;19936;-79
2024/03/06 07:17:35;;;;;;;;;;;;;;;12.23;70.89;100506.53;5093954;28;20385;-79
2024/03/06 07:20:24;;;;;;;;;;;;;;;12.27;70.74;100504.72;5065182;28;20381;-79
2024/03/06 07:23:14;;;;;;;;;;;;;;;12.30;70.76;100509.50;5093827;28;19916;-77
2024/03/06 07:26:06;;;;;;;;;;;;;;;12.31;70.27;100513.81;5091354;28;19919;-79
2024/03/06 07:28:56;;;;;;;;;;;;;;;12.38;70.05;100511.38;5065899;28;19920;-79
2024/03/06 07:31:48;;;;;;;;;;;;;;;12.40;69.79;100520.00;5060578;28;19920;-79
2024/03/06 07:34:40;;;;;;;;;;;;;;;12.46;70.03;100518.69;5063094;28;19920;-80
2024/03/06 07:37:32;;;;;;;;;;;;;;;12.49;69.94;100520.78;5093284;28;19920;-79
2024/03/06 07:40:25;;;;;;;;;;;;;;;12.50;69.34;100533.25;5062159;28;20312;-80
2024/03/06 07:43:15;;;;;;;;;;;;;;;12.51;69.75;100534.84;5074610;28;19916;-80
2024/03/06 07:46:10;;;;;;;;;;;;;;;12.58;69.61;100540.59;5058878;28;19916;-80
2024/03/06 07:49:02;;;;;;;;;;;;;;;12.59;69.07;100542.19;5072616;28;19916;-78
2024/03/06 07:51:54;;;;;;;;;;;;;;;12.66;69.47;100545.16;5072041;28;19920;-80
2024/03/06 07:54:46;;;;;;;;;;;;;;;12.74;69.32;100549.78;5081508;28;19931;-79
2024/03/06 07:57:39;;;;;;;;;;;;;;;12.78;68.56;100566.28;5086975;28;19919;-79
2024/03/06 08:00:31;;;;;;;;;;;;;;;12.82;68.79;100562.53;5072541;28;19924;-81
2024/03/06 08:03:23;;;;;;;;;;;;;;;12.86;67.79;100566.19;5071333;28;19916;-82
2024/03/06 08:06:15;;;;;;;;;;;;;;;12.92;66.58;100571.44;5076503;28;19916;-82
2024/03/06 08:09:07;;;;;;;;;;;;;;;12.92;66.57;100572.25;5067496;28;19916;-80
2024/03/06 08:12:02;;;;;;;;;;;;;;;12.95;65.73;100573.53;5065701;28;19917;-80
2024/03/06 08:14:54;;;;;;;;;;;;;;;12.88;64.95;100581.44;5074730;28;19916;-80
2024/03/06 08:17:46;;;;;;;;;;;;;;;12.99;65.38;100588.91;5077136;28;19920;-79
2024/03/06 08:20:38;;;;;;;;;;;;;;;13.04;64.38;100590.63;5064322;28;20385;-81
2024/03/06 08:23:30;;;;;;;;;;;;;;;13.09;63.81;100593.94;5078136;28;19920;-80
2024/03/06 08:26:22;;;;;;;;;;;;;;;13.18;64.02;100591.97;5058500;28;20401;-80
2024/03/06 08:29:14;;;;;;;;;;;;;;;13.24;64.01;100593.34;5077178;28;20313;-77
2024/03/06 08:32:06;;;;;;;;;;;;;;;13.24;62.84;100595.28;5078925;28;19920;-76
2024/03/06 08:34:58;;;;;;;;;;;;;;;13.28;61.63;100594.28;5077717;28;19916;-77
2024/03/06 08:37:50;;;;;;;;;;;;;;;13.26;61.11;100602.00;5090388;28;19924;-77
2024/03/06 08:40:42;;;;;;;;;;;;;;;13.24;60.87;100604.28;5070028;28;20316;-77
2024/03/06 08:43:34;;;;;;;;;;;;;;;13.23;60.54;100612.78;5092801;28;19916;-77
2024/03/06 08:46:26;;;;;;;;;;;;;;;13.22;61.60;100616.66;5079386;28;19920;-77
2024/03/06 08:49:18;;;;;;;;;;;;;;;13.26;60.61;100614.84;5080718;28;19916;-77
2024/03/06 08:52:10;;;;;;;;;;;;;;;13.28;60.31;100628.97;5111198;28;20387;-77
2024/03/06 08:55:02;;;;;;;;;;;;;;;13.32;60.46;100629.88;5092577;28;19923;-76
2024/03/06 08:57:55;;;;;;;;;;;;;;;13.30;61.01;100632.19;5097956;28;19916;-77
2024/03/06 09:00:47;;;;;;;;;;;;;;;13.32;60.78;100640.00;5111421;28;20292;-77
2024/03/06 09:03:39;;;;;;;;;;;;;;;13.32;60.66;100643.53;5097571;28;20297;-77
2024/03/06 09:06:31;;;;;;;;;;;;;;;13.34;61.23;100646.75;5096972;28;19928;-77
2024/03/06 09:09:20;;;;;;;;;;;;;;;13.42;61.06;100651.31;5100434;28;20300;-77
2024/03/06 09:12:14;;;;;;;;;;;;;;;13.45;60.87;100647.94;5111207;28;19920;-77
2024/03/06 09:15:06;;;;;;;;;;;;;;;13.45;61.18;100655.34;5088499;28;19915;-77
2024/03/06 09:17:58;;;;;;;;;;;;;;;13.39;60.75;100657.47;5069780;28;19916;-76
2024/03/06 09:20:50;;;;;;;;;;;;;;;13.34;60.35;100660.41;5090915;28;19916;-77
2024/03/06 09:23:42;;;;;;;;;;;;;;;13.25;60.92;100667.88;5089821;28;19920;-77
2024/03/06 09:26:33;;;;;;;;;;;;;;;13.30;61.22;100666.88;5090917;28;19916;-77
2024/03/06 09:29:25;;;;;;;;;;;;;;;13.34;62.68;100665.88;5065291;28;19916;-77
2024/03/06 09:32:17;;;;;;;;;;;;;;;13.28;62.99;100668.00;5084385;28;19920;-76
2024/03/06 09:35:09;;;;;;;;;;;;;;;13.34;62.46;100657.69;5096359;28;19916;-76
2024/03/06 09:38:01;;;;;;;;;;;;;;;13.30;62.92;100664.94;5098818;28;20392;-78
2024/03/06 09:40:53;;;;;;;;;;;;;;;13.26;62.86;100667.53;5090094;28;20394;-77
2024/03/06 09:43:45;;;;;;;;;;;;;;;13.27;62.84;100660.13;5100536;28;19916;-77
2024/03/06 09:46:37;;;;;;;;;;;;;;;13.22;61.92;100665.81;5091463;28;19920;-76
2024/03/06 09:49:29;;;;;;;;;;;;;;;13.31;62.28;100666.53;5102816;28;19919;-77
2024/03/06 09:52:21;;;;;;;;;;;;;;;13.43;61.79;100663.84;5114821;28;19916;-77
2024/03/06 09:55:13;;;;;;;;;;;;;;;13.50;62.01;100661.41;5104362;28;20320;-77
2024/03/06 09:58:04;;;;;;;;;;;;;;;13.45;60.88;100667.06;5114560;28;19923;-77
2024/03/06 10:00:57;;;;;;;;;;;;;;;13.40;60.51;100670.00;5099592;28;20372;-77
2024/03/06 10:03:49;;;;;;;;;;;;;;;13.40;61.80;100664.53;5080712;28;19919;-77
2024/03/06 10:06:41;;;;;;;;;;;;;;;13.37;60.02;100665.19;5101223;28;20369;-77
2024/03/06 10:09:33;;;;;;;;;;;;;;;13.34;59.78;100673.25;5104609;28;19920;-77
2024/03/06 10:12:24;;;;;;;;;;;;;;;13.65;60.02;100666.22;5113420;28;19919;-77
2024/03/06 10:15:17;;;;;;;;;;;;;;;13.98;60.39;100670.84;5114282;28;19916;-77
2024/03/06 10:18:18;;;;;;;;;;;;;;;14.29;59.66;100671.13;5103768;28;20312;-77
2024/03/06 10:21:10;;;;;;;;;;;;;;;14.39;59.22;100670.69;5101440;28;19915;-76
2024/03/06 10:24:02;;;;;;;;;;;;;;;14.23;57.89;100675.22;5093692;28;19916;-76
2024/03/06 10:26:57;;;;;;;;;;;;;;;14.29;58.13;100668.38;5100592;28;20300;-77
2024/03/06 10:30:11;;;;;;;;;;;;;;;14.45;58.31;100671.28;5076265;28;19920;-77
2024/03/06 10:33:00;;;;;;;;;;;;;;;14.40;58.48;100672.31;5093686;28;20377;-77
2024/03/06 10:35:52;;;;;;;;;;;;;;;14.37;58.73;100681.22;5082364;28;19923;-77
2024/03/06 10:38:46;;;;;;;;;;;;;;;14.37;59.10;100664.78;5065557;28;19916;-78
2024/03/06 10:41:40;;;;;;;;;;;;;;;14.33;59.52;100665.75;5093995;28;19916;-76
2024/03/06 10:44:32;;;;;;;;;;;;;;;14.58;57.00;100672.09;5071246;28;19919;-77
2024/03/06 10:47:27;;;;;;;;;;;;;;;14.81;57.57;100673.19;5089069;28;20296;-77
2024/03/06 10:50:20;;;;;;;;;;;;;;;14.95;56.29;100673.63;5113370;28;19915;-77
2024/03/06 10:53:12;;;;;;;;;;;;;;;14.85;55.81;100669.41;5086776;28;19916;-77
2024/03/06 10:56:05;;;;;;;;;;;;;;;14.61;55.41;100665.91;5113474;28;19920;-77
2024/03/06 10:58:58;;;;;;;;;;;;;;;14.93;55.86;100665.75;5114401;28;19916;-77
2024/03/06 11:01:49;;;;;;;;;;;;;;;14.92;56.01;100668.84;5113402;28;19920;-77
2024/03/06 11:04:44;;;;;;;;;;;;;;;15.13;55.53;100669.47;5098502;28;19915;-77
2024/03/06 11:07:36;;;;;;;;;;;;;;;15.30;54.24;100669.19;5113577;28;20373;-77
2024/03/06 11:10:38;;;;;;;;;;;;;;;15.36;52.92;100667.00;5085838;28;19915;-75
2024/03/06 11:13:32;;;;;;;;;;;;;;;15.55;53.39;100663.63;5069583;28;19916;-77
2024/03/06 11:16:32;;;;;;;;;;;;;;;15.53;53.78;100657.72;5088126;28;19920;-78
2024/03/06 11:19:21;;;;;;;;;;;;;;;15.61;51.86;100664.97;5078001;28;19916;-78
2024/03/06 11:22:13;;;;;;;;;;;;;;;15.62;52.85;100667.38;5078145;28;20327;-78
2024/03/06 11:25:05;;;;;;;;;;;;;;;15.54;52.63;100664.81;5077981;28;20400;-78
2024/03/06 11:28:09;;;;;;;;;;;;;;;15.25;52.08;100674.91;5078171;28;19920;-77
2024/03/06 11:31:02;;;;;;;;;;;;;;;15.39;53.36;100671.78;5067920;28;19925;-77
2024/03/06 11:33:55;;;;;;;;;;;;;;;15.48;53.33;100657.94;5071265;28;19916;-77
2024/03/06 11:36:55;;;;;;;;;;;;;;;15.55;52.11;100669.09;5068353;28;19923;-77
2024/03/06 11:39:47;;;;;;;;;;;;;;;15.72;53.07;100664.13;5059703;28;19919;-77
2024/03/06 11:42:39;;;;;;;;;;;;;;;15.72;55.13;100668.81;5092819;28;19917;-77
2024/03/06 11:45:45;;;;;;;;;;;;;;;15.60;55.38;100671.59;5069265;28;19916;-78
2024/03/06 11:48:38;;;;;;;;;;;;;;;15.79;54.14;100655.31;5077445;28;19917;-78
2024/03/06 11:51:31;;;;;;;;;;;;;;;15.94;52.03;100656.47;5058760;28;19916;-78
2024/03/06 11:54:26;;;;;;;;;;;;;;;16.09;51.98;100656.47;5080889;28;20392;-77
2024/03/06 11:57:21;;;;;;;;;;;;;;;16.11;52.06;100648.69;5092398;28;19920;-77
2024/03/06 12:00:13;;;;;;;;;;;;;;;16.32;50.52;100650.34;5081765;28;19916;-77
2024/03/06 12:03:05;;;;;;;;;;;;;;;16.23;50.48;100640.38;5068918;28;20377;-77
2024/03/06 12:05:57;;;;;;;;;;;;;;;16.45;50.40;100641.69;5092001;28;19920;-77
2024/03/06 12:08:46;;;;;;;;;;;;;;;16.18;51.36;100642.56;5062158;28;19916;-79
2024/03/06 12:11:37;;;;;;;;;;;;;;;16.64;49.92;100627.22;5077136;28;19920;-78
2024/03/06 12:14:29;;;;;;;;;;;;;;;16.66;48.96;100636.69;5084691;28;19921;-77
2024/03/06 12:17:21;;;;;;;;;;;;;;;16.85;49.94;100624.97;5079674;28;20328;-77
2024/03/06 12:20:13;;;;;;;;;;;;;;;16.72;50.34;100633.66;5076439;28;19920;-77
2024/03/06 12:23:06;;;;;;;;;;;;;;;16.80;49.52;100628.00;5074301;28;19916;-78
2024/03/06 12:26:08;;;;;;;;;;;;;;;16.78;49.57;100627.53;5078643;28;19920;-78
2024/03/06 12:29:05;;;;;;;;;;;;;;;16.94;45.93;100624.75;5057505;28;19916;-77
2024/03/06 12:31:57;;;;;;;;;;;;;;;17.02;46.78;100627.28;5074157;28;19916;-77
2024/03/06 12:34:57;;;;;;;;;;;;;;;17.22;46.04;100624.56;5071323;28;20304;-78
2024/03/06 12:37:50;;;;;;;;;;;;;;;17.26;46.12;100619.94;5079146;28;19928;-78
2024/03/06 12:40:42;;;;;;;;;;;;;;;17.30;46.34;100615.28;5071887;28;19928;-79
2024/03/06 12:43:34;;;;;;;;;;;;;;;17.26;46.85;100625.41;5071031;28;19931;-77
2024/03/06 12:46:26;;;;;;;;;;;;;;;17.35;46.33;100609.50;5064533;28;20377;-77
2024/03/06 12:49:18;;;;;;;;;;;;;;;17.15;45.68;100619.72;5074906;28;19919;-77
2024/03/06 12:52:10;;;;;;;;;;;;;;;17.16;47.04;100615.81;5092010;28;20385;-77
2024/03/06 12:55:02;;;;;;;;;;;;;;;17.26;41.96;100631.72;5059762;28;19920;-77
2024/03/06 12:57:54;;;;;;;;;;;;;;;17.32;44.34;100624.75;5076640;28;19924;-77
2024/03/06 13:00:46;;;;;;;;;;;;;;;17.08;43.96;100628.59;5076322;28;19916;-77
2024/03/06 13:03:38;;;;;;;;;;;;;;;17.19;45.09;100630.75;5090741;28;19920;-77
2024/03/06 13:06:30;;;;;;;;;;;;;;;17.00;45.33;100623.31;5076265;28;20405;-77
2024/03/06 13:09:23;;;;;;;;;;;;;;;17.12;45.73;100625.13;5078697;28;19936;-78
2024/03/06 13:12:12;;;;;;;;;;;;;;;17.24;44.53;100619.47;5085544;28;19920;-78
2024/03/06 13:15:04;;;;;;;;;;;;;;;17.22;44.38;100627.31;5079021;28;19920;-77
2024/03/06 13:17:56;;;;;;;;;;;;;;;17.03;44.54;100619.84;5064889;28;19920;-77
2024/03/06 13:20:48;;;;;;;;;;;;;;;17.27;44.14;100616.03;5071034;28;19916;-76
2024/03/06 13:23:40;;;;;;;;;;;;;;;17.31;43.58;100619.63;5089500;28;20392;-76
2024/03/06 13:26:32;;;;;;;;;;;;;;;17.38;45.07;100617.00;5075738;28;19920;-77
2024/03/06 13:29:24;;;;;;;;;;;;;;;17.53;45.37;100607.88;5075573;28;19919;-77
2024/03/06 13:32:14;;;;;;;;;;;;;;;17.32;44.35;100616.50;5097031;28;19915;-76
2024/03/06 13:35:08;;;;;;;;;;;;;;;17.36;44.75;100613.84;5097084;28;19920;-75
2024/03/06 13:37:58;;;;;;;;;;;;;;;17.53;44.30;100608.66;5086663;28;19923;-76
2024/03/06 13:40:50;;;;;;;;;;;;;;;17.38;44.46;100617.81;5099023;28;20385;-76
2024/03/06 13:43:42;;;;;;;;;;;;;;;17.46;43.35;100618.75;5096382;28;20308;-76
2024/03/06 13:46:34;;;;;;;;;;;;;;;17.44;45.63;100623.81;5110945;28;19915;-76
2024/03/06 13:49:39;;;;;;;;;;;;;;;16.71;52.29;100635.63;5077368;28;19915;-75
2024/03/06 13:52:31;;;;;;;;;;;;;;;16.45;52.05;100635.41;5100173;28;19920;-76
2024/03/06 13:55:23;;;;;;;;;;;;;;;16.09;49.49;100640.03;5084982;28;19916;-76
2024/03/06 13:58:15;;;;;;;;;;;;;;;16.08;50.19;100652.13;5096200;28;19923;-76
2024/03/06 14:01:05;;;;;;;;;;;;;;;16.13;49.66;100642.84;5086280;28;19915;-76
2024/03/06 14:03:57;;;;;;;;;;;;;;;16.04;49.89;100648.50;5096039;28;19919;-76
2024/03/06 14:06:49;;;;;;;;;;;;;;;16.13;48.99;100640.91;5110660;28;19916;-76
2024/03/06 14:09:42;;;;;;;;;;;;;;;16.11;49.03;100642.41;5095114;28;19920;-76
2024/03/06 14:12:34;;;;;;;;;;;;;;;16.01;48.94;100637.44;5073430;28;20373;-76
2024/03/06 14:15:26;;;;;;;;;;;;;;;16.05;48.70;100646.56;5068161;28;20377;-76
2024/03/06 14:18:18;;;;;;;;;;;;;;;16.00;49.52;100639.38;5078699;28;19924;-78
2024/03/06 14:21:10;;;;;;;;;;;;;;;16.07;48.99;100636.81;5061091;28;19916;-78
2024/03/06 14:24:06;;;;;;;;;;;;;;;16.20;48.35;100632.81;5082751;28;19939;-78
2024/03/06 14:27:01;;;;;;;;;;;;;;;16.37;48.34;100630.88;5081150;28;19920;-78
2024/03/06 14:29:53;;;;;;;;;;;;;;;16.45;47.18;100635.41;5068224;28;19916;-78
2024/03/06 14:32:45;;;;;;;;;;;;;;;16.52;46.92;100632.78;5091461;28;19916;-79
2024/03/06 14:35:37;;;;;;;;;;;;;;;16.59;46.49;100630.25;5078352;28;20309;-78
2024/03/06 14:38:29;;;;;;;;;;;;;;;16.63;45.79;100625.63;5080489;28;19920;-78
2024/03/06 14:41:21;;;;;;;;;;;;;;;16.66;44.99;100628.47;5076137;28;20309;-77
2024/03/06 14:44:13;;;;;;;;;;;;;;;16.76;45.74;100638.09;5062855;28;19924;-77